createdAt,value
2023-04-27T00:02:01.101Z,98661.96
2023-04-27T00:04:28.673Z,98662.61
2023-04-27T00:06:56.010Z,98660.60
2023-04-27T00:09:23.186Z,98664.77
2023-04-27T00:11:50.850Z,98663.74
2023-04-27T00:14:17.870Z,98661.89
2023-04-27T00:16:45.048Z,98663.50
2023-04-27T00:19:14.212Z,98669.72
2023-04-27T00:21:41.969Z,98666.78
2023-04-27T00:24:08.924Z,98669.70
2023-04-27T00:26:36.105Z,98676.44
2023-04-27T00:29:03.244Z,98672.58
2023-04-27T00:31:30.417Z,98675.57
2023-04-27T00:33:57.796Z,98672.86
2023-04-27T00:36:24.951Z,98670.25
2023-04-27T00:38:52.307Z,98665.09
2023-04-27T00:41:19.273Z,98661.70
2023-04-27T00:43:47.449Z,98662.20
2023-04-27T00:46:14.995Z,98660.45
2023-04-27T00:48:41.987Z,98658.73
2023-04-27T00:51:09.603Z,98648.98
2023-04-27T00:53:36.490Z,98644.65
2023-04-27T00:56:05.716Z,98642.73
2023-04-27T00:58:33.400Z,98633.46
2023-04-27T01:01:01.061Z,98627.89
2023-04-27T01:03:28.666Z,98619.04
2023-04-27T01:05:57.362Z,98609.11
2023-04-27T01:08:24.864Z,98599.20
2023-04-27T01:10:52.319Z,98589.27
2023-04-27T01:13:19.792Z,98572.73
2023-04-27T01:15:47.197Z,98564.95
2023-04-27T01:18:14.558Z,98557.56
2023-04-27T01:20:42.524Z,98553.87
2023-04-27T01:23:16.672Z,98549.13
2023-04-27T01:25:44.289Z,98542.23
2023-04-27T01:28:11.143Z,98538.21
2023-04-27T01:30:38.314Z,98530.94
2023-04-27T01:33:05.712Z,98524.72
2023-04-27T01:35:32.958Z,98514.89
2023-04-27T01:38:00.695Z,98495.06
2023-04-27T01:40:27.786Z,98479.23
2023-04-27T01:42:55.014Z,98451.95
2023-04-27T01:45:22.172Z,98432.55
2023-04-27T01:47:52.224Z,98426.84
2023-04-27T01:50:20.531Z,98433.11
2023-04-27T01:52:47.752Z,98425.50
2023-04-27T01:55:14.928Z,98412.88
2023-04-27T01:57:42.825Z,98403.74
2023-04-27T02:00:10.922Z,98389.52
2023-04-27T02:02:53.826Z,98376.99
2023-04-27T02:05:23.286Z,98367.15
2023-04-27T02:07:50.528Z,98350.88
2023-04-27T02:10:17.379Z,98341.54
2023-04-27T02:12:45.287Z,98345.04
2023-04-27T02:15:12.196Z,98333.24
2023-04-27T02:17:39.836Z,98298.46
2023-04-27T02:20:07.546Z,98291.80
2023-04-27T02:22:34.617Z,98263.40
2023-04-27T02:25:02.182Z,98234.17
2023-04-27T02:27:29.067Z,98229.64
2023-04-27T02:29:58.110Z,98220.94
2023-04-27T02:32:25.775Z,98152.39
2023-04-27T02:34:52.647Z,98084.43
2023-04-27T02:37:19.812Z,98052.23
2023-04-27T02:39:47.514Z,98018.00
2023-04-27T02:42:14.945Z,97979.64
2023-04-27T02:44:43.243Z,97943.58
2023-04-27T02:47:11.061Z,97918.75
2023-04-27T02:49:38.256Z,97911.64
2023-04-27T02:52:05.860Z,97920.26
2023-04-27T02:54:32.988Z,97933.43
2023-04-27T02:57:00.199Z,97943.84
2023-04-27T02:59:27.359Z,97970.54
2023-04-27T03:01:54.473Z,97949.88
2023-04-27T03:04:21.722Z,97957.13
2023-04-27T03:06:49.274Z,97995.95
2023-04-27T03:09:16.721Z,98017.39
2023-04-27T03:11:44.092Z,98037.22
2023-04-27T03:14:12.843Z,98073.26
2023-04-27T03:16:40.498Z,98088.44
2023-04-27T03:19:07.687Z,98117.46
2023-04-27T03:21:35.076Z,98148.27
2023-04-27T03:24:02.425Z,98129.73
2023-04-27T03:26:29.697Z,98156.17
2023-04-27T03:28:58.060Z,98196.90
2023-04-27T03:31:27.990Z,98236.83
2023-04-27T03:33:55.244Z,98252.92
2023-04-27T03:36:22.868Z,98262.80
2023-04-27T03:38:49.961Z,98261.90
2023-04-27T03:41:17.124Z,98256.73
2023-04-27T03:43:44.263Z,98254.42
2023-04-27T03:46:11.496Z,98261.50
2023-04-27T03:48:38.770Z,98279.91
2023-04-27T03:51:06.946Z,98286.41
2023-04-27T03:53:34.716Z,98293.04
2023-04-27T03:56:02.229Z,98307.71
2023-04-27T03:58:29.442Z,98332.58
2023-04-27T04:01:19.117Z,98355.48
2023-04-27T04:03:48.036Z,98383.05
2023-04-27T04:06:15.919Z,98391.54
2023-04-27T04:08:43.425Z,98397.89
2023-04-27T04:11:11.004Z,98406.30
2023-04-27T04:13:38.479Z,98431.38
2023-04-27T04:16:06.966Z,98472.61
2023-04-27T04:18:34.609Z,98582.67
2023-04-27T04:21:02.196Z,98616.80
2023-04-27T04:23:29.580Z,98636.29
2023-04-27T04:25:56.910Z,98620.98
2023-04-27T04:28:25.347Z,98603.80
2023-04-27T04:30:53.020Z,98624.16
2023-04-27T04:33:20.440Z,98654.20
2023-04-27T04:35:47.904Z,98665.02
2023-04-27T04:38:15.328Z,98665.55
2023-04-27T04:40:45.284Z,98671.86
2023-04-27T04:43:13.707Z,98663.69
2023-04-27T04:45:42.889Z,98654.50
2023-04-27T04:48:10.453Z,98645.36
2023-04-27T04:50:37.994Z,98635.39
2023-04-27T04:53:05.468Z,98627.79
2023-04-27T04:55:33.693Z,98616.05
2023-04-27T04:58:04.449Z,98595.95
2023-04-27T05:00:32.014Z,98577.45
2023-04-27T05:03:01.753Z,98560.21
2023-04-27T05:05:29.188Z,98535.17
2023-04-27T05:07:56.218Z,98510.85
2023-04-27T05:10:23.372Z,98487.57
2023-04-27T05:12:50.559Z,98480.52
2023-04-27T05:15:18.422Z,98466.15
2023-04-27T05:17:45.526Z,98444.50
2023-04-27T05:20:12.843Z,98418.85
2023-04-27T05:22:40.944Z,98404.02
2023-04-27T05:25:08.997Z,98380.81
2023-04-27T05:27:35.998Z,98365.15
2023-04-27T05:30:03.641Z,98357.95
2023-04-27T05:32:30.969Z,98348.15
2023-04-27T05:34:58.470Z,98350.25
2023-04-27T05:37:26.024Z,98333.41
2023-04-27T05:39:53.557Z,98317.28
2023-04-27T05:42:20.995Z,98320.59
2023-04-27T05:44:48.560Z,98324.02
2023-04-27T05:47:15.807Z,98316.23
2023-04-27T05:49:43.189Z,98293.55
2023-04-27T05:52:10.388Z,98288.80
2023-04-27T05:54:37.648Z,98280.19
2023-04-27T05:57:04.901Z,98283.63
2023-04-27T05:59:32.032Z,98275.00
2023-04-27T06:01:59.319Z,98271.58
2023-04-27T06:04:27.258Z,98271.48
2023-04-27T06:06:55.088Z,98278.88
2023-04-27T06:09:22.591Z,98272.52
2023-04-27T06:11:50.103Z,98273.51
2023-04-27T06:14:17.873Z,98274.15
2023-04-27T06:16:45.738Z,98281.92
2023-04-27T06:19:13.194Z,98293.30
2023-04-27T06:21:41.064Z,98307.64
2023-04-27T06:24:08.325Z,98319.05
2023-04-27T06:26:35.702Z,98338.52
2023-04-27T06:29:08.128Z,98340.42
2023-04-27T06:31:35.353Z,98349.83
2023-04-27T06:34:02.907Z,98382.20
2023-04-27T06:36:29.941Z,98410.85
2023-04-27T06:38:57.067Z,98451.37
2023-04-27T06:41:24.886Z,98504.33
2023-04-27T06:43:52.361Z,98552.70
2023-04-27T06:46:19.873Z,98604.96
2023-04-27T06:48:47.184Z,98677.02
2023-04-27T06:51:14.445Z,98731.45
2023-04-27T06:53:41.986Z,98801.95
2023-04-27T06:56:11.716Z,98896.55
2023-04-27T06:58:38.559Z,98981.80
2023-04-27T07:01:05.817Z,99037.16
2023-04-27T07:03:36.086Z,99104.78
2023-04-27T07:06:03.163Z,99163.29
2023-04-27T07:08:30.396Z,99221.73
2023-04-27T07:10:57.582Z,99281.27
2023-04-27T07:13:25.167Z,99355.95
2023-04-27T07:15:59.113Z,99431.59
2023-04-27T07:18:28.307Z,99494.88
2023-04-27T07:20:55.922Z,99545.48
2023-04-27T07:23:23.260Z,99597.12
2023-04-27T07:25:50.732Z,99622.48
2023-04-27T07:28:18.601Z,99651.54
2023-04-27T07:30:45.926Z,99685.67
2023-04-27T07:33:13.530Z,99713.95
2023-04-27T07:35:40.951Z,99730.22
2023-04-27T07:38:09.168Z,99751.34
2023-04-27T07:40:37.018Z,99749.95
2023-04-27T07:43:04.338Z,99742.07
2023-04-27T07:45:34.638Z,99738.27
2023-04-27T07:48:02.460Z,99721.91
2023-04-27T07:50:32.757Z,99686.42
2023-04-27T07:52:59.715Z,99630.81
2023-04-27T07:55:27.102Z,99565.85
2023-04-27T07:57:54.343Z,99532.81
2023-04-27T08:00:22.467Z,99498.58
2023-04-27T08:02:50.875Z,99459.11
2023-04-27T08:05:18.420Z,99404.25
2023-04-27T08:07:46.979Z,99390.62
2023-04-27T08:10:15.262Z,99385.02
2023-04-27T08:12:42.674Z,99369.83
2023-04-27T08:15:10.774Z,99314.74
2023-04-27T08:17:40.974Z,99285.40
2023-04-27T08:20:11.708Z,99299.15
2023-04-27T08:22:39.710Z,99262.70
2023-04-27T08:25:08.726Z,99271.16
2023-04-27T08:27:40.120Z,99268.02
2023-04-27T08:30:07.781Z,99226.14
2023-04-27T08:32:34.888Z,99136.13
2023-04-27T08:35:02.168Z,99111.90
2023-04-27T08:37:29.454Z,99076.18
2023-04-27T08:39:56.918Z,99060.92
2023-04-27T08:42:24.167Z,99042.96
2023-04-27T08:44:52.092Z,98994.77
2023-04-27T08:47:25.804Z,98906.58
2023-04-27T08:50:02.149Z,98871.91
2023-04-27T08:52:28.991Z,98775.52
2023-04-27T08:54:55.952Z,98656.83
2023-04-27T08:57:23.109Z,98577.83
2023-04-27T09:00:01.105Z,98531.73
2023-04-27T09:02:29.887Z,98533.91
2023-04-27T09:04:57.277Z,98559.94
2023-04-27T09:07:26.157Z,98589.76
2023-04-27T09:10:02.930Z,98549.52
2023-04-27T09:12:33.291Z,98506.30
2023-04-27T09:15:04.042Z,98491.15
2023-04-27T09:17:31.465Z,98523.64
2023-04-27T09:20:10.470Z,98548.46
2023-04-27T09:22:48.691Z,98543.48
2023-04-27T09:25:28.572Z,98493.86
2023-04-27T09:27:56.538Z,98466.58
2023-04-27T09:30:24.556Z,98443.04
2023-04-27T09:32:53.075Z,98443.34
2023-04-27T09:35:26.049Z,98441.85
2023-04-27T09:37:53.864Z,98430.70
2023-04-27T09:40:26.505Z,98418.20
2023-04-27T09:42:58.554Z,98418.30
2023-04-27T09:45:26.106Z,98418.82
2023-04-27T09:47:53.680Z,98433.23
2023-04-27T09:50:22.131Z,98440.40
2023-04-27T09:52:49.353Z,98436.43
2023-04-27T09:55:20.162Z,98429.80
2023-04-27T09:57:54.691Z,98427.17
2023-04-27T10:00:49.734Z,98420.95
2023-04-27T10:03:39.351Z,98423.14
2023-04-27T10:06:32.623Z,98421.65
2023-04-27T10:08:59.815Z,98415.25
2023-04-27T10:11:39.832Z,98413.19
2023-04-27T10:14:08.738Z,98420.14
2023-04-27T10:16:49.157Z,98423.80
2023-04-27T10:19:16.999Z,98428.39
2023-04-27T10:21:57.708Z,98423.48
2023-04-27T10:24:41.956Z,98428.05
2023-04-27T10:27:11.433Z,98422.23
2023-04-27T10:29:42.920Z,98423.67
2023-04-27T10:32:19.184Z,98427.08
2023-04-27T10:34:48.879Z,98426.45
2023-04-27T10:37:16.640Z,98419.54
2023-04-27T10:39:49.046Z,98421.30
2023-04-27T10:42:28.823Z,98431.28
2023-04-27T10:44:59.599Z,98450.59
2023-04-27T10:47:39.890Z,98510.76
2023-04-27T10:50:09.095Z,98559.70
2023-04-27T10:52:36.583Z,98589.75
2023-04-27T10:55:17.226Z,98563.00
2023-04-27T10:57:52.060Z,98524.24
2023-04-27T11:00:44.997Z,98512.07
2023-04-27T11:03:23.501Z,98523.27
2023-04-27T11:06:00.559Z,98507.44
2023-04-27T11:08:28.105Z,98488.77
2023-04-27T11:10:55.466Z,98479.48
2023-04-27T11:13:24.266Z,98477.45
2023-04-27T11:15:54.955Z,98486.66
2023-04-27T11:18:25.550Z,98487.82
2023-04-27T11:20:54.260Z,98503.67
2023-04-27T11:23:30.123Z,98495.55
2023-04-27T11:25:57.741Z,98478.98
2023-04-27T11:28:24.972Z,98477.30
2023-04-27T11:30:59.196Z,98488.42
2023-04-27T11:33:27.792Z,98486.67
2023-04-27T11:35:55.260Z,98477.73
2023-04-27T11:38:23.081Z,98512.44
2023-04-27T11:41:07.862Z,98503.95
2023-04-27T11:43:35.509Z,98505.58
2023-04-27T11:46:10.781Z,98536.11
2023-04-27T11:48:38.697Z,98605.83
2023-04-27T11:51:06.830Z,98622.16
2023-04-27T11:53:35.884Z,98618.09
2023-04-27T11:56:07.986Z,98672.02
2023-04-27T11:58:36.383Z,98700.65
2023-04-27T12:01:04.911Z,98728.41
2023-04-27T12:03:32.348Z,98772.84
2023-04-27T12:06:16.212Z,98757.19
2023-04-27T12:08:47.680Z,98695.35
2023-04-27T12:11:15.288Z,98691.06
2023-04-27T12:13:42.576Z,98723.36
2023-04-27T12:16:10.012Z,98795.48
2023-04-27T12:18:37.522Z,98820.09
2023-04-27T12:21:08.525Z,98845.41
2023-04-27T12:23:36.632Z,98860.08
2023-04-27T12:26:04.147Z,98850.95
2023-04-27T12:28:31.905Z,98845.71
2023-04-27T12:30:59.378Z,98815.19
2023-04-27T12:33:26.936Z,98690.82
2023-04-27T12:35:54.208Z,98677.47
2023-04-27T12:38:22.376Z,98692.83
2023-04-27T12:40:49.898Z,98742.66
2023-04-27T12:43:17.285Z,98783.33
2023-04-27T12:45:44.679Z,98813.14
2023-04-27T12:48:12.089Z,98818.02
2023-04-27T12:50:39.570Z,98831.52
2023-04-27T12:53:07.646Z,98834.30
2023-04-27T12:55:35.272Z,98831.69
2023-04-27T12:58:02.790Z,98813.08
2023-04-27T13:00:30.558Z,98793.55
2023-04-27T13:02:58.746Z,98773.29
2023-04-27T13:05:26.607Z,98757.38
2023-04-27T13:07:54.029Z,98772.37
2023-04-27T13:10:24.557Z,98772.73
2023-04-27T13:12:51.909Z,98792.40
2023-04-27T13:15:19.205Z,98813.89
2023-04-27T13:17:46.968Z,98840.50
2023-04-27T13:20:15.541Z,98850.44
2023-04-27T13:22:42.940Z,98850.28
2023-04-27T13:25:10.774Z,98829.00
2023-04-27T13:27:38.262Z,98803.86
2023-04-27T13:30:06.813Z,98792.67
2023-04-27T13:32:34.453Z,98792.52
2023-04-27T13:35:01.827Z,98764.87
2023-04-27T13:37:29.292Z,98732.88
2023-04-27T13:39:56.789Z,98719.15
2023-04-27T13:42:29.646Z,98702.11
2023-04-27T13:44:57.403Z,98697.80
2023-04-27T13:47:24.777Z,98690.96
2023-04-27T13:49:52.325Z,98718.91
2023-04-27T13:52:19.772Z,98732.98
2023-04-27T13:54:47.426Z,98745.23
2023-04-27T13:57:14.824Z,98748.80
2023-04-27T13:59:42.414Z,98741.01
2023-04-27T14:02:10.148Z,98725.73
2023-04-27T14:04:40.154Z,98719.91
2023-04-27T14:07:07.868Z,98727.92
2023-04-27T14:09:35.282Z,98726.80
2023-04-27T14:12:02.995Z,98734.73
2023-04-27T14:14:30.518Z,98729.92
2023-04-27T14:16:58.139Z,98735.07
2023-04-27T14:19:27.572Z,98739.21
2023-04-27T14:21:56.422Z,98732.55
2023-04-27T14:24:23.846Z,98729.42
2023-04-27T14:26:51.699Z,98732.70
2023-04-27T14:29:19.384Z,98735.34
2023-04-27T14:31:47.523Z,98746.28
2023-04-27T14:34:14.937Z,98772.54
2023-04-27T14:36:42.824Z,98801.47
2023-04-27T14:39:10.400Z,98795.55
2023-04-27T14:41:38.064Z,98775.97
2023-04-27T14:44:10.678Z,98777.86
2023-04-27T14:46:38.468Z,98771.98
2023-04-27T14:49:05.859Z,98765.77
2023-04-27T14:51:33.408Z,98760.98
2023-04-27T14:54:00.910Z,98765.79
2023-04-27T14:56:28.360Z,98767.44
2023-04-27T14:58:55.731Z,98759.29
2023-04-27T15:01:23.132Z,98744.89
2023-04-27T15:03:53.243Z,98738.58
2023-04-27T15:06:22.103Z,98716.31
2023-04-27T15:08:49.475Z,98687.04
2023-04-27T15:11:17.176Z,98651.45
2023-04-27T15:13:45.098Z,98613.63
2023-04-27T15:16:12.728Z,98580.42
2023-04-27T15:18:40.220Z,98553.65
2023-04-27T15:21:07.589Z,98532.45
2023-04-27T15:23:37.399Z,98515.89
2023-04-27T15:26:04.885Z,98509.34
2023-04-27T15:28:34.053Z,98504.74
2023-04-27T15:31:01.601Z,98496.31
2023-04-27T15:33:29.918Z,98496.02
2023-04-27T15:35:59.251Z,98501.64
2023-04-27T15:38:27.247Z,98503.05
2023-04-27T15:40:54.658Z,98503.99
2023-04-27T15:43:42.956Z,98500.77
2023-04-27T15:46:15.025Z,98499.80
2023-04-27T15:48:42.608Z,98502.59
2023-04-27T15:51:10.611Z,98501.42
2023-04-27T15:53:38.350Z,98501.43
2023-04-27T15:56:06.035Z,98508.08
2023-04-27T15:58:33.573Z,98512.02
2023-04-27T16:01:01.041Z,98517.34
2023-04-27T16:03:28.526Z,98528.95
2023-04-27T16:05:56.217Z,98532.96
2023-04-27T16:08:23.743Z,98537.31
2023-04-27T16:10:51.057Z,98547.91
2023-04-27T16:13:18.545Z,98562.70
2023-04-27T16:15:46.027Z,98579.68
2023-04-27T16:18:13.537Z,98603.51
2023-04-27T16:20:41.170Z,98627.39
2023-04-27T16:23:08.587Z,98647.81
2023-04-27T16:25:36.049Z,98667.92
2023-04-27T16:28:03.558Z,98695.45
2023-04-27T16:30:31.084Z,98722.46
2023-04-27T16:32:58.549Z,98746.31
2023-04-27T16:35:26.252Z,98754.06
2023-04-27T16:37:54.725Z,98772.17
2023-04-27T16:40:22.269Z,98780.54
2023-04-27T16:42:49.794Z,98774.98
2023-04-27T16:45:17.340Z,98784.39
2023-04-27T16:47:48.121Z,98798.37
2023-04-27T16:50:15.542Z,98816.91
2023-04-27T16:52:43.133Z,98840.35
2023-04-27T16:55:10.788Z,98863.71
2023-04-27T16:57:38.352Z,98888.10
2023-04-27T17:00:07.009Z,98912.23
2023-04-27T17:02:35.441Z,98937.85
2023-04-27T17:05:02.902Z,98964.30
2023-04-27T17:07:32.989Z,98993.19
2023-04-27T17:10:00.478Z,99019.30
2023-04-27T17:12:28.020Z,99047.96
2023-04-27T17:14:55.541Z,99073.44
2023-04-27T17:17:23.175Z,99088.88
2023-04-27T17:19:50.605Z,99118.46
2023-04-27T17:22:18.138Z,99123.27
2023-04-27T17:24:45.631Z,99135.59
2023-04-27T17:27:13.120Z,99156.15
2023-04-27T17:29:40.549Z,99177.22
2023-04-27T17:32:09.561Z,99191.37
2023-04-27T17:34:37.526Z,99199.77
2023-04-27T17:37:05.031Z,99210.52
2023-04-27T17:39:32.486Z,99219.08
2023-04-27T17:41:59.863Z,99219.40
2023-04-27T17:44:27.269Z,99222.13
2023-04-27T17:46:55.024Z,99228.60
2023-04-27T17:49:23.076Z,99236.58
2023-04-27T17:51:50.637Z,99234.95
2023-04-27T17:54:19.779Z,99245.53
2023-04-27T17:56:47.570Z,99243.36
2023-04-27T17:59:15.501Z,99243.00
2023-04-27T18:01:44.055Z,99241.17
2023-04-27T18:04:11.858Z,99244.46
2023-04-27T18:06:39.192Z,99249.97
2023-04-27T18:09:06.937Z,99254.56
2023-04-27T18:11:35.506Z,99257.13
2023-04-27T18:14:03.939Z,99257.38
2023-04-27T18:16:31.535Z,99258.80
2023-04-27T18:18:58.790Z,99263.50
2023-04-27T18:21:28.321Z,99265.27
2023-04-27T18:23:56.487Z,99263.70
2023-04-27T18:26:24.060Z,99267.40
2023-04-27T18:28:51.619Z,99282.06
2023-04-27T18:31:19.418Z,99297.85
2023-04-27T18:33:47.218Z,99308.08
2023-04-27T18:36:14.887Z,99328.92
2023-04-27T18:38:42.335Z,99328.59
2023-04-27T18:41:09.844Z,99330.94
2023-04-27T18:43:37.258Z,99339.94
2023-04-27T18:46:04.863Z,99343.48
2023-04-27T18:48:32.736Z,99334.75
2023-04-27T18:50:59.990Z,99308.70
2023-04-27T18:53:27.385Z,99287.39
2023-04-27T18:55:54.947Z,99278.39
2023-04-27T18:58:23.207Z,99283.22
2023-04-27T19:00:51.012Z,99262.34
2023-04-27T19:03:19.208Z,99238.30
2023-04-27T19:05:47.831Z,99208.13
2023-04-27T19:08:15.381Z,99172.98
2023-04-27T19:10:42.896Z,99129.44
2023-04-27T19:13:13.926Z,99085.27
2023-04-27T19:15:41.476Z,99039.16
2023-04-27T19:18:11.516Z,99001.73
2023-04-27T19:20:40.099Z,98958.92
2023-04-27T19:23:09.795Z,98909.61
2023-04-27T19:25:38.521Z,98864.35
2023-04-27T19:28:06.348Z,98826.88
2023-04-27T19:30:34.191Z,98781.40
2023-04-27T19:33:01.862Z,98748.17
2023-04-27T19:35:30.602Z,98723.55
2023-04-27T19:37:58.059Z,98695.93
2023-04-27T19:40:25.259Z,98643.05
2023-04-27T19:42:52.667Z,98594.21
2023-04-27T19:45:20.878Z,98570.53
2023-04-27T19:47:49.117Z,98559.27
2023-04-27T19:50:17.203Z,98542.98
2023-04-27T19:52:44.759Z,98528.36
2023-04-27T19:55:12.079Z,98507.45
2023-04-27T19:57:39.392Z,98500.88
2023-04-27T20:00:11.914Z,98489.15
2023-04-27T20:02:42.424Z,98473.95
2023-04-27T20:05:10.517Z,98465.00
2023-04-27T20:07:38.366Z,98466.04
2023-04-27T20:10:06.296Z,98469.54
2023-04-27T20:12:47.478Z,98474.54
2023-04-27T20:15:19.395Z,98482.24
2023-04-27T20:17:47.460Z,98487.84
2023-04-27T20:20:15.026Z,98494.38
2023-04-27T20:22:42.605Z,98503.95
2023-04-27T20:25:10.155Z,98521.20
2023-04-27T20:27:37.612Z,98531.46
2023-04-27T20:30:05.529Z,98538.14
2023-04-27T20:32:32.924Z,98552.95
2023-04-27T20:35:02.725Z,98563.31
2023-04-27T20:37:30.529Z,98576.45
2023-04-27T20:39:58.263Z,98586.65
2023-04-27T20:42:25.646Z,98604.11
2023-04-27T20:44:55.144Z,98623.83
2023-04-27T20:47:22.719Z,98636.36
2023-04-27T20:49:50.197Z,98647.14
2023-04-27T20:52:17.832Z,98658.45
2023-04-27T20:54:45.349Z,98667.90
2023-04-27T20:57:14.516Z,98676.36
2023-04-27T20:59:42.021Z,98688.38
2023-04-27T21:02:09.519Z,98705.98
2023-04-27T21:04:37.061Z,98713.22
2023-04-27T21:07:04.760Z,98725.09
2023-04-27T21:09:32.265Z,98736.70
2023-04-27T21:11:59.462Z,98750.02
2023-04-27T21:14:27.025Z,98759.98
2023-04-27T21:16:54.513Z,98769.95
2023-04-27T21:19:22.242Z,98779.55
2023-04-27T21:21:49.620Z,98791.30
2023-04-27T21:24:17.685Z,98800.98
2023-04-27T21:26:45.058Z,98808.94
2023-04-27T21:29:12.492Z,98812.70
2023-04-27T21:31:40.128Z,98819.34
2023-04-27T21:34:08.292Z,98825.77
2023-04-27T21:36:35.731Z,98835.82
2023-04-27T21:39:03.219Z,98845.12
2023-04-27T21:41:30.565Z,98851.63
2023-04-27T21:43:58.203Z,98848.92
2023-04-27T21:46:25.714Z,98859.83
2023-04-27T21:48:52.989Z,98867.02
2023-04-27T21:51:20.558Z,98886.76
2023-04-27T21:53:47.839Z,98891.14
2023-04-27T21:56:15.337Z,98896.70
2023-04-27T21:58:42.802Z,98897.33
2023-04-27T22:01:11.362Z,98901.97
2023-04-27T22:03:39.389Z,98899.84
2023-04-27T22:06:07.728Z,98900.13
2023-04-27T22:08:35.418Z,98910.90
2023-04-27T22:11:03.203Z,98916.98
2023-04-27T22:13:30.755Z,98919.04
2023-04-27T22:15:58.206Z,98918.02
2023-04-27T22:18:25.812Z,98918.36
2023-04-27T22:20:54.760Z,98920.42
2023-04-27T22:23:22.381Z,98920.89
2023-04-27T22:25:49.905Z,98924.88
2023-04-27T22:28:17.531Z,98931.20
2023-04-27T22:30:45.341Z,98933.86
2023-04-27T22:33:12.681Z,98942.26
2023-04-27T22:35:40.284Z,98939.33
2023-04-27T22:38:07.737Z,98938.60
2023-04-27T22:40:35.509Z,98938.88
2023-04-27T22:43:02.376Z,98939.20
2023-04-27T22:45:29.481Z,98937.78
2023-04-27T22:47:57.703Z,98940.69
2023-04-27T22:50:24.886Z,98941.92
2023-04-27T22:52:53.132Z,98944.99
2023-04-27T22:55:20.024Z,98949.58
2023-04-27T22:57:47.017Z,98957.13
2023-04-27T23:00:14.195Z,98962.52
2023-04-27T23:02:41.758Z,98962.37
2023-04-27T23:05:11.051Z,98958.35
2023-04-27T23:07:38.569Z,98956.23
2023-04-27T23:10:06.182Z,98960.81
2023-04-27T23:12:33.284Z,98962.32
2023-04-27T23:15:00.213Z,98969.31
2023-04-27T23:17:33.647Z,98978.02
2023-04-27T23:20:01.210Z,98987.34
2023-04-27T23:22:28.681Z,99006.63
2023-04-27T23:24:55.627Z,99019.23
2023-04-27T23:27:23.802Z,99034.55
2023-04-27T23:29:51.026Z,99043.51
2023-04-27T23:32:18.413Z,99049.31
2023-04-27T23:34:45.556Z,99057.17
2023-04-27T23:37:12.801Z,99062.84
2023-04-27T23:39:39.841Z,99067.23
2023-04-27T23:42:07.116Z,99079.13
2023-04-27T23:44:34.224Z,99085.36
2023-04-27T23:47:01.451Z,99097.38
2023-04-27T23:49:28.649Z,99109.42
2023-04-27T23:51:55.931Z,99121.58
2023-04-27T23:54:23.607Z,99133.75
2023-04-27T23:56:51.388Z,99137.21
2023-04-27T23:59:18.868Z,99145.36
